createdAt,value
2017-11-14T00:00:53.560Z,3.05
2017-11-14T00:01:53.538Z,3.1
2017-11-14T00:02:53.206Z,3.1
2017-11-14T00:03:53.187Z,3.15
2017-11-14T00:04:53.497Z,3.06
2017-11-14T00:05:53.492Z,3.08
2017-11-14T00:06:53.479Z,3.15
2017-11-14T00:07:53.454Z,3.13
2017-11-14T00:08:53.441Z,3.13
2017-11-14T00:09:53.433Z,3.1
2017-11-14T00:10:53.416Z,3.1
2017-11-14T00:11:53.078Z,3.23
2017-11-14T00:12:53.381Z,3.21
2017-11-14T00:13:53.365Z,3.21
2017-11-14T00:14:53.034Z,3.17
2017-11-14T00:15:53.350Z,3.2
2017-11-14T00:16:53.334Z,3.18
2017-11-14T00:17:53.317Z,3.21
2017-11-14T00:18:53.304Z,3.26
2017-11-14T00:19:53.287Z,3.26
2017-11-14T00:20:53.271Z,3.2
2017-11-14T00:21:53.262Z,3.24
2017-11-14T00:22:52.916Z,3.23
2017-11-14T00:23:52.903Z,3.26
2017-11-14T00:24:53.213Z,3.24
2017-11-14T00:25:53.208Z,3.18
2017-11-14T00:26:53.186Z,3.2
2017-11-14T00:27:53.430Z,3.06
2017-11-14T00:28:53.153Z,3.17
2017-11-14T00:29:53.137Z,3.15
2017-11-14T00:30:53.128Z,3.08
2017-11-14T00:31:53.111Z,3.06
2017-11-14T00:32:52.798Z,3.23
2017-11-14T00:33:53.096Z,3.06
2017-11-14T00:34:52.417Z,3.23
2017-11-14T00:35:53.056Z,3.2
2017-11-14T00:36:52.722Z,3.13
2017-11-14T00:37:52.710Z,3.2
2017-11-14T00:38:53.022Z,3.21
2017-11-14T00:39:52.993Z,3.23
2017-11-14T00:40:52.986Z,3.2
2017-11-14T00:41:52.966Z,3.26
2017-11-14T00:42:52.951Z,3.23
2017-11-14T00:43:52.935Z,3.26
2017-11-14T00:44:52.924Z,3.24
2017-11-14T00:45:52.921Z,3.21
2017-11-14T00:46:52.894Z,3.24
2017-11-14T00:47:52.883Z,3.26
2017-11-14T00:48:52.860Z,3.28
2017-11-14T00:49:52.853Z,3.28
2017-11-14T00:50:52.837Z,3.28
2017-11-14T00:51:52.826Z,3.23
2017-11-14T00:52:52.821Z,3.36
2017-11-14T00:53:52.797Z,3.29
2017-11-14T00:54:52.811Z,3.33
2017-11-14T00:55:52.772Z,3.39
2017-11-14T00:56:52.754Z,3.29
2017-11-14T00:57:52.419Z,3.33
2017-11-14T00:58:52.720Z,3.32
2017-11-14T00:59:52.705Z,3.35
2017-11-14T01:00:52.692Z,3.29
2017-11-14T01:01:52.369Z,3.33
2017-11-14T01:02:52.673Z,3.29
2017-11-14T01:03:52.666Z,3.31
2017-11-14T01:04:52.634Z,3.32
2017-11-14T01:05:52.620Z,3.35
2017-11-14T01:06:52.286Z,3.35
2017-11-14T01:07:52.264Z,3.43
2017-11-14T01:08:52.577Z,3.36
2017-11-14T01:09:52.606Z,3.43
2017-11-14T01:10:52.546Z,3.43
2017-11-14T01:11:52.534Z,3.42
2017-11-14T01:12:52.519Z,3.47
2017-11-14T01:13:52.507Z,3.33
2017-11-14T01:14:52.492Z,3.43
2017-11-14T01:15:52.481Z,3.32
2017-11-14T01:16:52.463Z,3.4
2017-11-14T01:17:52.446Z,3.36
2017-11-14T01:18:52.437Z,3.42
2017-11-14T01:19:52.420Z,3.48
2017-11-14T01:20:52.415Z,3.48
2017-11-14T01:21:52.063Z,3.5
2017-11-14T01:22:52.383Z,3.43
2017-11-14T01:23:52.043Z,3.45
2017-11-14T01:24:52.348Z,3.54
2017-11-14T01:25:52.344Z,3.51
2017-11-14T01:26:52.322Z,3.58
2017-11-14T01:27:52.319Z,3.5
2017-11-14T01:28:52.297Z,3.57
2017-11-14T01:29:51.981Z,3.6
2017-11-14T01:30:52.268Z,3.58
2017-11-14T01:31:52.250Z,3.48
2017-11-14T01:32:52.250Z,3.48
2017-11-14T01:33:52.235Z,3.51
2017-11-14T01:34:52.213Z,3.58
2017-11-14T01:35:52.208Z,3.47
2017-11-14T01:36:52.175Z,3.54
2017-11-14T01:37:52.162Z,3.54
2017-11-14T01:38:52.146Z,3.58
2017-11-14T01:39:52.136Z,3.54
2017-11-14T01:40:52.124Z,3.6
2017-11-14T01:41:51.780Z,3.54
2017-11-14T01:42:52.096Z,3.55
2017-11-14T01:43:52.076Z,3.58
2017-11-14T01:44:52.069Z,3.58
2017-11-14T01:45:52.050Z,3.62
2017-11-14T01:46:52.034Z,3.66
2017-11-14T01:47:52.021Z,3.68
2017-11-14T01:48:52.027Z,3.69
2017-11-14T01:49:52.012Z,3.62
2017-11-14T01:50:52.010Z,3.6
2017-11-14T01:51:51.649Z,3.69
2017-11-14T01:52:51.962Z,3.68
2017-11-14T01:53:51.937Z,3.73
2017-11-14T01:54:51.928Z,3.72
2017-11-14T01:55:51.907Z,3.72
2017-11-14T01:56:51.904Z,3.73
2017-11-14T01:57:51.881Z,3.79
2017-11-14T01:58:51.867Z,3.78
2017-11-14T01:59:51.853Z,3.76
2017-11-14T02:00:51.841Z,3.79
2017-11-14T02:01:51.757Z,3.79
2017-11-14T02:02:51.807Z,3.75
2017-11-14T02:03:51.794Z,3.75
2017-11-14T02:04:51.779Z,3.8
2017-11-14T02:05:51.775Z,3.83
2017-11-14T02:06:51.759Z,3.86
2017-11-14T02:07:51.741Z,3.75
2017-11-14T02:08:51.724Z,3.75
2017-11-14T02:09:51.708Z,3.84
2017-11-14T02:10:51.702Z,3.72
2017-11-14T02:11:51.683Z,3.78
2017-11-14T02:12:51.670Z,3.84
2017-11-14T02:13:51.337Z,3.84
2017-11-14T02:14:51.644Z,3.84
2017-11-14T02:15:51.307Z,3.75
2017-11-14T02:16:51.615Z,3.8
2017-11-14T02:17:51.279Z,3.78
2017-11-14T02:18:51.588Z,3.7
2017-11-14T02:19:51.245Z,3.78
2017-11-14T02:20:51.563Z,3.78
2017-11-14T02:21:51.547Z,3.8
2017-11-14T02:22:51.530Z,3.78
2017-11-14T02:23:51.513Z,3.72
2017-11-14T02:24:51.541Z,3.78
2017-11-14T02:25:51.485Z,3.75
2017-11-14T02:26:51.491Z,3.66
2017-11-14T02:27:51.131Z,3.65
2017-11-14T02:28:51.452Z,3.66
2017-11-14T02:29:51.466Z,3.7
2017-11-14T02:30:51.418Z,3.72
2017-11-14T02:31:51.413Z,3.66
2017-11-14T02:32:51.660Z,3.69
2017-11-14T02:33:51.398Z,3.66
2017-11-14T02:34:51.360Z,3.66
2017-11-14T02:35:51.359Z,3.58
2017-11-14T02:36:51.336Z,3.52
2017-11-14T02:37:50.997Z,3.57
2017-11-14T02:38:51.324Z,3.5
2017-11-14T02:39:51.323Z,3.61
2017-11-14T02:40:51.295Z,3.47
2017-11-14T02:41:51.266Z,3.52
2017-11-14T02:42:51.248Z,3.52
2017-11-14T02:43:51.264Z,3.48
2017-11-14T02:44:51.238Z,3.42
2017-11-14T02:45:51.212Z,3.31
2017-11-14T02:46:51.198Z,3.43
2017-11-14T02:47:51.195Z,3.31
2017-11-14T02:48:51.165Z,3.33
2017-11-14T02:49:51.170Z,3.26
2017-11-14T02:50:51.177Z,3.33
2017-11-14T02:51:51.124Z,3.21
2017-11-14T02:52:51.111Z,3.23
2017-11-14T02:53:51.098Z,3.21
2017-11-14T02:54:51.085Z,3.17
2017-11-14T02:55:51.069Z,3.24
2017-11-14T02:56:51.061Z,3.24
2017-11-14T02:57:50.717Z,3.15
2017-11-14T02:58:51.025Z,3.08
2017-11-14T02:59:51.005Z,3.1
2017-11-14T03:00:51.008Z,3.15
2017-11-14T03:01:50.975Z,3.13
2017-11-14T03:02:50.965Z,3.15
2017-11-14T03:03:51.199Z,3.13
2017-11-14T03:04:50.934Z,3.13
2017-11-14T03:05:50.919Z,3
2017-11-14T03:06:50.589Z,3.08
2017-11-14T03:07:50.562Z,3.06
2017-11-14T03:08:50.889Z,3.05
2017-11-14T03:09:50.551Z,2.97
2017-11-14T03:10:50.848Z,2.93
2017-11-14T03:11:50.830Z,2.97
2017-11-14T03:12:50.824Z,2.81
2017-11-14T03:13:50.808Z,2.99
2017-11-14T03:14:50.788Z,2.78
2017-11-14T03:15:50.776Z,2.92
2017-11-14T03:16:50.757Z,2.85
2017-11-14T03:17:50.759Z,2.82
2017-11-14T03:18:50.731Z,2.72
2017-11-14T03:19:50.724Z,2.67
2017-11-14T03:20:50.377Z,2.69
2017-11-14T03:21:50.693Z,2.6
2017-11-14T03:22:50.345Z,2.56
2017-11-14T03:23:50.652Z,2.61
2017-11-14T03:24:50.651Z,2.53
2017-11-14T03:25:50.627Z,2.48
2017-11-14T03:26:50.634Z,2.48
2017-11-14T03:27:50.270Z,2.45
2017-11-14T03:28:50.582Z,2.38
2017-11-14T03:29:50.570Z,2.38
2017-11-14T03:30:50.567Z,2.3
2017-11-14T03:31:50.546Z,2.31
2017-11-14T03:32:50.543Z,2.21
2017-11-14T03:33:50.510Z,2.18
2017-11-14T03:34:50.749Z,2.1
2017-11-14T03:35:50.504Z,2.09
2017-11-14T03:36:50.142Z,2.06
2017-11-14T03:37:50.449Z,2.12
2017-11-14T03:38:50.117Z,2.06
2017-11-14T03:39:50.423Z,2
2017-11-14T03:40:50.407Z,1.87
2017-11-14T03:41:50.394Z,1.81
2017-11-14T03:42:50.377Z,1.81
2017-11-14T03:43:50.365Z,1.79
2017-11-14T03:44:50.023Z,1.87
2017-11-14T03:45:50.009Z,1.76
2017-11-14T03:46:50.314Z,1.81
2017-11-14T03:47:50.303Z,1.8
2017-11-14T03:48:50.285Z,1.79
2017-11-14T03:49:49.957Z,1.8
2017-11-14T03:50:50.256Z,1.77
2017-11-14T03:51:50.238Z,1.79
2017-11-14T03:52:49.902Z,1.73
2017-11-14T03:53:50.209Z,1.84
2017-11-14T03:54:50.191Z,1.83
2017-11-14T03:55:50.183Z,1.86
2017-11-14T03:56:50.161Z,1.8
2017-11-14T03:57:50.157Z,1.86
2017-11-14T03:58:50.137Z,1.8
2017-11-14T03:59:50.117Z,1.83
2017-11-14T04:00:50.115Z,1.87
2017-11-14T04:01:50.092Z,1.81
2017-11-14T04:02:50.077Z,1.88
2017-11-14T04:03:50.067Z,1.87
2017-11-14T04:04:50.043Z,1.87
2017-11-14T04:05:50.035Z,1.87
2017-11-14T04:06:49.686Z,1.86
2017-11-14T04:07:50.016Z,1.95
2017-11-14T04:08:49.994Z,2
2017-11-14T04:09:49.972Z,1.91
2017-11-14T04:10:49.954Z,2.03
2017-11-14T04:11:49.941Z,2.09
2017-11-14T04:12:49.926Z,2.03
2017-11-14T04:13:49.912Z,2.07
2017-11-14T04:14:49.901Z,2.18
2017-11-14T04:15:49.875Z,2.16
2017-11-14T04:16:49.863Z,2.07
2017-11-14T04:17:49.845Z,2.18
2017-11-14T04:18:49.874Z,2.16
2017-11-14T04:19:49.811Z,2.1
2017-11-14T04:20:49.819Z,2.2
2017-11-14T04:21:49.805Z,2.3
2017-11-14T04:22:49.469Z,2.24
2017-11-14T04:23:49.440Z,2.16
2017-11-14T04:24:49.734Z,2.2
2017-11-14T04:25:49.731Z,2.31
2017-11-14T04:26:49.711Z,2.3
2017-11-14T04:27:49.715Z,2.35
2017-11-14T04:28:49.679Z,2.28
2017-11-14T04:29:49.660Z,2.35
2017-11-14T04:30:49.654Z,2.39
2017-11-14T04:31:49.638Z,2.45
2017-11-14T04:32:49.624Z,2.48
2017-11-14T04:33:49.608Z,2.52
2017-11-14T04:34:49.591Z,2.49
2017-11-14T04:35:49.576Z,2.59
2017-11-14T04:36:49.237Z,2.49
2017-11-14T04:37:49.555Z,2.57
2017-11-14T04:38:49.529Z,2.6
2017-11-14T04:39:49.513Z,2.59
2017-11-14T04:40:49.174Z,2.64
2017-11-14T04:41:49.482Z,2.61
2017-11-14T04:42:49.476Z,2.63
2017-11-14T04:43:49.460Z,2.63
2017-11-14T04:44:49.452Z,2.63
2017-11-14T04:45:49.424Z,2.6
2017-11-14T04:46:49.415Z,2.56
2017-11-14T04:47:49.404Z,2.6
2017-11-14T04:48:49.385Z,2.57
2017-11-14T04:49:49.366Z,2.59
2017-11-14T04:50:49.368Z,2.54
2017-11-14T04:51:49.018Z,2.52
2017-11-14T04:52:49.337Z,2.39
2017-11-14T04:53:48.981Z,2.43
2017-11-14T04:54:49.294Z,2.35
2017-11-14T04:55:49.277Z,2.3
2017-11-14T04:56:48.937Z,2.31
2017-11-14T04:57:49.247Z,2.35
2017-11-14T04:58:49.247Z,2.23
2017-11-14T04:59:49.232Z,2.23
2017-11-14T05:00:49.205Z,2.24
2017-11-14T05:01:49.196Z,2.17
2017-11-14T05:02:49.187Z,2.17
2017-11-14T05:03:49.163Z,2.25
2017-11-14T05:04:49.156Z,2.12
2017-11-14T05:05:49.147Z,2.1
2017-11-14T05:06:49.118Z,2.12
2017-11-14T05:07:49.105Z,2.12
2017-11-14T05:08:49.342Z,2.17
2017-11-14T05:09:49.083Z,2.14
2017-11-14T05:10:49.056Z,2.1
2017-11-14T05:11:49.039Z,2.07
2017-11-14T05:12:49.028Z,2.06
2017-11-14T05:13:49.023Z,2.03
2017-11-14T05:14:48.999Z,2.06
2017-11-14T05:15:48.980Z,2.06
2017-11-14T05:16:48.961Z,2.09
2017-11-14T05:17:48.957Z,2.03
2017-11-14T05:18:48.936Z,2.07
2017-11-14T05:19:48.921Z,2.09
2017-11-14T05:20:48.911Z,2.05
2017-11-14T05:21:48.893Z,2.05
2017-11-14T05:22:48.877Z,2.06
2017-11-14T05:23:48.862Z,2.09
2017-11-14T05:24:48.847Z,2.1
2017-11-14T05:25:48.872Z,2.07
2017-11-14T05:26:48.822Z,2.05
2017-11-14T05:27:48.859Z,2.05
2017-11-14T05:28:48.780Z,2.03
2017-11-14T05:29:48.773Z,2.03
2017-11-14T05:30:48.753Z,1.98
2017-11-14T05:31:48.752Z,2
2017-11-14T05:32:48.399Z,1.91
2017-11-14T05:33:48.380Z,1.9
2017-11-14T05:34:48.694Z,1.91
2017-11-14T05:35:48.681Z,1.91
2017-11-14T05:36:48.346Z,1.84
2017-11-14T05:37:48.649Z,1.79
2017-11-14T05:38:48.640Z,1.86
2017-11-14T05:39:48.543Z,1.8
2017-11-14T05:40:48.599Z,1.83
2017-11-14T05:41:48.580Z,1.79
2017-11-14T05:42:48.570Z,1.76
2017-11-14T05:43:48.560Z,1.76
2017-11-14T05:44:48.551Z,1.83
2017-11-14T05:45:48.524Z,1.8
2017-11-14T05:46:48.507Z,1.76
2017-11-14T05:47:48.511Z,1.8
2017-11-14T05:48:48.476Z,1.8
2017-11-14T05:49:48.460Z,1.77
2017-11-14T05:50:48.124Z,1.81
2017-11-14T05:51:48.431Z,1.77
2017-11-14T05:52:48.423Z,1.76
2017-11-14T05:53:48.407Z,1.83
2017-11-14T05:54:48.395Z,1.83
2017-11-14T05:55:48.375Z,1.9
2017-11-14T05:56:48.357Z,1.95
2017-11-14T05:57:48.351Z,1.98
2017-11-14T05:58:48.334Z,1.91
2017-11-14T05:59:48.311Z,1.98
2017-11-14T06:00:48.295Z,1.91
2017-11-14T06:01:47.964Z,1.98
2017-11-14T06:02:48.265Z,2.05
2017-11-14T06:03:48.246Z,2.05
2017-11-14T06:04:48.236Z,2
2017-11-14T06:05:48.216Z,2.16
2017-11-14T06:06:48.210Z,2.05
2017-11-14T06:07:48.195Z,2.12
2017-11-14T06:08:48.180Z,2.14
2017-11-14T06:09:48.160Z,2.1
2017-11-14T06:10:48.409Z,2.12
2017-11-14T06:11:48.132Z,2.2
2017-11-14T06:12:48.116Z,2.25
2017-11-14T06:13:48.098Z,2.24
2017-11-14T06:14:48.090Z,2.27
2017-11-14T06:15:48.088Z,2.27
2017-11-14T06:16:48.054Z,2.28
2017-11-14T06:17:48.044Z,2.17
2017-11-14T06:18:48.023Z,2.24
2017-11-14T06:19:48.010Z,2.2
2017-11-14T06:20:48.002Z,2.25
2017-11-14T06:21:48.003Z,2.27
2017-11-14T06:22:47.971Z,2.24
2017-11-14T06:23:47.947Z,2.21
2017-11-14T06:24:47.942Z,2.31
2017-11-14T06:25:47.918Z,2.38
2017-11-14T06:26:47.907Z,2.38
2017-11-14T06:27:47.897Z,2.39
2017-11-14T06:28:47.879Z,2.48
2017-11-14T06:29:47.855Z,2.41
2017-11-14T06:30:47.841Z,2.53
2017-11-14T06:31:47.828Z,2.61
2017-11-14T06:32:47.809Z,2.6
2017-11-14T06:33:47.472Z,2.69
2017-11-14T06:34:47.786Z,2.77
2017-11-14T06:35:47.770Z,2.84
2017-11-14T06:36:47.749Z,2.87
2017-11-14T06:37:47.413Z,2.93
2017-11-14T06:38:47.720Z,2.92
2017-11-14T06:39:47.711Z,2.95
2017-11-14T06:40:47.706Z,3.14
2017-11-14T06:41:47.684Z,3.17
2017-11-14T06:42:47.664Z,3.1
2017-11-14T06:43:47.323Z,3.14
2017-11-14T06:44:47.635Z,3.06
2017-11-14T06:45:47.630Z,3.1
2017-11-14T06:46:47.283Z,3.13
2017-11-14T06:47:47.591Z,3.13
2017-11-14T06:48:47.574Z,3.08
2017-11-14T06:49:47.585Z,3.11
2017-11-14T06:50:47.579Z,3.14
2017-11-14T06:51:47.206Z,3.1
2017-11-14T06:52:47.520Z,3.11
2017-11-14T06:53:47.506Z,3.13
2017-11-14T06:54:47.493Z,3.1
2017-11-14T06:55:47.473Z,3.1
2017-11-14T06:56:47.464Z,3.1
2017-11-14T06:57:47.452Z,3.23
2017-11-14T06:58:46.779Z,3.21
2017-11-14T06:59:47.422Z,3.29
2017-11-14T07:00:47.400Z,3.29
2017-11-14T07:01:47.399Z,3.2
2017-11-14T07:02:47.059Z,3.36
2017-11-14T07:03:47.357Z,3.26
2017-11-14T07:04:47.352Z,3.33
2017-11-14T07:05:47.333Z,3.43
2017-11-14T07:06:47.316Z,3.48
2017-11-14T07:07:47.305Z,3.58
2017-11-14T07:08:46.964Z,3.66
2017-11-14T07:09:47.270Z,3.62
2017-11-14T07:10:47.280Z,3.66
2017-11-14T07:11:47.242Z,3.7
2017-11-14T07:12:46.927Z,3.83
2017-11-14T07:13:47.218Z,3.79
2017-11-14T07:14:47.205Z,3.88
2017-11-14T07:15:46.859Z,3.87
2017-11-14T07:16:46.869Z,3.93
2017-11-14T07:17:47.055Z,3.94
2017-11-14T07:18:47.146Z,3.97
2017-11-14T07:19:46.807Z,4.15
2017-11-14T07:20:47.118Z,4.15
2017-11-14T07:21:47.133Z,4.12
2017-11-14T07:22:47.095Z,4.23
2017-11-14T07:23:47.090Z,4.23
2017-11-14T07:24:47.078Z,4.32
2017-11-14T07:25:47.047Z,4.27
2017-11-14T07:26:47.049Z,4.36
2017-11-14T07:27:47.030Z,4.36
2017-11-14T07:28:47.014Z,4.37
2017-11-14T07:29:46.677Z,4.47
2017-11-14T07:30:46.985Z,4.48
2017-11-14T07:31:46.984Z,4.59
2017-11-14T07:32:46.959Z,4.62
2017-11-14T07:33:46.624Z,4.72
2017-11-14T07:34:46.927Z,4.63
2017-11-14T07:35:46.914Z,4.69
2017-11-14T07:36:46.582Z,4.65
2017-11-14T07:37:46.881Z,4.75
2017-11-14T07:38:46.899Z,4.78
2017-11-14T07:39:46.853Z,4.82
2017-11-14T07:40:46.863Z,4.73
2017-11-14T07:41:46.508Z,4.91
2017-11-14T07:42:46.815Z,4.96
2017-11-14T07:43:46.805Z,5
2017-11-14T07:44:46.464Z,5.06
2017-11-14T07:45:46.807Z,5.09
2017-11-14T07:46:46.771Z,5.24
2017-11-14T07:47:46.759Z,5.28
2017-11-14T07:48:46.739Z,5.35
2017-11-14T07:49:46.736Z,5.39
2017-11-14T07:50:46.734Z,5.51
2017-11-14T07:51:46.721Z,5.6
2017-11-14T07:52:46.711Z,5.58
2017-11-14T07:53:46.669Z,5.53
2017-11-14T07:54:46.674Z,5.65
2017-11-14T07:55:46.652Z,5.72
2017-11-14T07:56:46.656Z,5.76
2017-11-14T07:57:46.617Z,5.79
2017-11-14T07:58:46.871Z,5.86
2017-11-14T07:59:46.607Z,5.86
2017-11-14T08:00:46.592Z,5.89
2017-11-14T08:01:46.281Z,5.94
2017-11-14T08:02:46.586Z,5.96
2017-11-14T08:03:45.894Z,6.03
2017-11-14T08:04:46.535Z,6.08
2017-11-14T08:05:46.517Z,6.06
2017-11-14T08:06:46.193Z,6.14
2017-11-14T08:07:46.538Z,6.12
2017-11-14T08:08:46.515Z,6.19
2017-11-14T08:09:46.489Z,6.18
2017-11-14T08:10:46.484Z,6.22
2017-11-14T08:11:46.467Z,6.28
2017-11-14T08:12:46.440Z,6.19
2017-11-14T08:13:46.423Z,6.25
2017-11-14T08:14:46.430Z,6.17
2017-11-14T08:15:46.662Z,6.21
2017-11-14T08:16:46.412Z,6.19
2017-11-14T08:17:46.395Z,6.31
2017-11-14T08:18:46.380Z,6.33
2017-11-14T08:19:45.748Z,6.36
2017-11-14T08:20:46.423Z,6.41
2017-11-14T08:21:46.385Z,6.48
2017-11-14T08:22:46.384Z,6.54
2017-11-14T08:23:46.303Z,6.48
2017-11-14T08:24:46.290Z,6.43
2017-11-14T08:25:46.306Z,6.52
2017-11-14T08:26:46.294Z,6.54
2017-11-14T08:27:46.295Z,6.58
2017-11-14T08:28:45.940Z,6.56
2017-11-14T08:29:46.234Z,6.58
2017-11-14T08:30:46.224Z,6.7
2017-11-14T08:31:46.233Z,6.69
2017-11-14T08:32:46.191Z,6.7
2017-11-14T08:33:46.238Z,6.74
2017-11-14T08:34:46.191Z,6.74
2017-11-14T08:35:46.165Z,6.8
2017-11-14T08:36:46.165Z,6.85
2017-11-14T08:37:46.151Z,6.84
2017-11-14T08:38:46.128Z,6.91
2017-11-14T08:39:46.106Z,6.79
2017-11-14T08:40:46.096Z,6.8
2017-11-14T08:41:46.093Z,6.79
2017-11-14T08:42:45.758Z,6.8
2017-11-14T08:43:46.114Z,6.77
2017-11-14T08:44:46.053Z,6.79
2017-11-14T08:45:46.050Z,6.85
2017-11-14T08:46:46.310Z,6.85
2017-11-14T08:47:46.025Z,6.97
2017-11-14T08:48:46.007Z,6.92
2017-11-14T08:49:46.045Z,6.94
2017-11-14T08:50:46.069Z,7.1
2017-11-14T08:51:45.984Z,7.03
2017-11-14T08:52:46.046Z,6.98
2017-11-14T08:53:45.951Z,6.99
2017-11-14T08:54:45.952Z,6.95
2017-11-14T08:55:46.004Z,6.85
2017-11-14T08:56:46.007Z,6.95
2017-11-14T08:57:46.010Z,6.85
2017-11-14T08:58:45.921Z,6.99
2017-11-14T08:59:45.883Z,6.99
2017-11-14T09:00:45.914Z,6.97
2017-11-14T09:01:45.862Z,6.98
2017-11-14T09:02:45.857Z,7.02
2017-11-14T09:03:45.864Z,6.95
2017-11-14T09:04:45.925Z,6.98
2017-11-14T09:05:45.813Z,6.95
2017-11-14T09:06:45.815Z,6.98
2017-11-14T09:07:45.786Z,6.98
2017-11-14T09:08:45.818Z,6.98
2017-11-14T09:09:45.928Z,7.09
2017-11-14T09:10:46.105Z,7.1
2017-11-14T09:11:45.834Z,7.21
2017-11-14T09:12:45.528Z,7.13
2017-11-14T09:13:45.785Z,7.21
2017-11-14T09:14:45.727Z,7.34
2017-11-14T09:15:45.732Z,7.42
2017-11-14T09:16:45.711Z,7.42
2017-11-14T09:17:45.937Z,7.43
2017-11-14T09:18:45.920Z,7.49
2017-11-14T09:19:45.714Z,7.53
2017-11-14T09:20:45.724Z,7.67
2017-11-14T09:21:45.330Z,7.74
2017-11-14T09:22:45.636Z,7.79
2017-11-14T09:23:45.628Z,7.83
2017-11-14T09:24:45.644Z,7.67
2017-11-14T09:25:45.586Z,7.67
2017-11-14T09:26:45.601Z,7.67
2017-11-14T09:27:44.958Z,7.64
2017-11-14T09:28:45.235Z,7.69
2017-11-14T09:29:45.579Z,7.79
2017-11-14T09:30:45.544Z,7.83
2017-11-14T09:31:45.517Z,7.82
2017-11-14T09:32:45.551Z,7.89
2017-11-14T09:33:45.518Z,7.87
2017-11-14T09:34:45.508Z,8.01
2017-11-14T09:35:45.163Z,8.05
2017-11-14T09:36:45.465Z,8.15
2017-11-14T09:37:45.497Z,8.15
2017-11-14T09:38:45.472Z,8.18
2017-11-14T09:39:45.726Z,8.19
2017-11-14T09:40:45.420Z,8.22
2017-11-14T09:41:45.115Z,8.12
2017-11-14T09:42:45.461Z,8.15
2017-11-14T09:43:45.387Z,8.16
2017-11-14T09:44:45.737Z,8.18
2017-11-14T09:45:45.489Z,8.22
2017-11-14T09:46:45.385Z,8.18
2017-11-14T09:47:45.421Z,8.1
2017-11-14T09:48:45.908Z,8.25
2017-11-14T09:49:45.356Z,8.29
2017-11-14T09:50:45.355Z,8.25
2017-11-14T09:51:45.332Z,8.25
2017-11-14T09:52:45.402Z,8.3
2017-11-14T09:53:45.332Z,8.41
2017-11-14T09:54:45.274Z,8.34
2017-11-14T09:55:45.306Z,8.45
2017-11-14T09:56:45.386Z,8.48
2017-11-14T09:57:45.315Z,8.41
2017-11-14T09:58:45.248Z,8.5
2017-11-14T09:59:45.229Z,8.44
2017-11-14T10:00:45.274Z,8.52
2017-11-14T10:01:45.244Z,8.52
2017-11-14T10:02:45.211Z,8.47
2017-11-14T10:03:45.184Z,8.45
2017-11-14T10:04:44.896Z,8.4
2017-11-14T10:05:45.403Z,8.47
2017-11-14T10:06:45.164Z,8.36
2017-11-14T10:07:45.180Z,8.29
2017-11-14T10:08:45.196Z,8.37
2017-11-14T10:09:45.141Z,8.33
2017-11-14T10:10:45.186Z,8.37
2017-11-14T10:11:45.134Z,8.36
2017-11-14T10:12:45.114Z,8.33
2017-11-14T10:13:45.087Z,8.4
2017-11-14T10:14:44.830Z,8.33
2017-11-14T10:15:45.070Z,8.29
2017-11-14T10:16:45.070Z,8.33
2017-11-14T10:17:45.054Z,8.34
2017-11-14T10:18:45.059Z,8.36
2017-11-14T10:19:45.095Z,8.34
2017-11-14T10:20:45.022Z,8.29
2017-11-14T10:21:44.704Z,8.3
2017-11-14T10:22:44.727Z,8.47
2017-11-14T10:23:45.061Z,8.45
2017-11-14T10:24:44.651Z,8.48
2017-11-14T10:25:44.672Z,8.45
2017-11-14T10:26:45.012Z,8.45
2017-11-14T10:27:44.968Z,8.4
2017-11-14T10:28:44.939Z,8.37
2017-11-14T10:29:45.050Z,8.34
2017-11-14T10:30:45.466Z,8.26
2017-11-14T10:31:44.927Z,8.23
2017-11-14T10:32:45.026Z,8.1
2017-11-14T10:33:44.586Z,8.25
2017-11-14T10:34:44.551Z,8.29
2017-11-14T10:35:44.863Z,8.33
2017-11-14T10:36:44.863Z,8.52
2017-11-14T10:37:45.094Z,8.43
2017-11-14T10:38:44.543Z,8.55
2017-11-14T10:39:44.553Z,8.58
2017-11-14T10:40:45.046Z,8.73
2017-11-14T10:41:44.477Z,8.74
2017-11-14T10:42:44.511Z,8.65
2017-11-14T10:43:44.772Z,8.77
2017-11-14T10:44:44.775Z,8.81
2017-11-14T10:45:44.771Z,8.77
2017-11-14T10:46:44.765Z,8.83
2017-11-14T10:47:44.798Z,8.91
2017-11-14T10:48:44.393Z,8.99
2017-11-14T10:49:44.745Z,9.01
2017-11-14T10:50:44.725Z,9.08
2017-11-14T10:51:44.762Z,9.1
2017-11-14T10:52:44.706Z,9.1
2017-11-14T10:53:44.683Z,9.08
2017-11-14T10:54:44.711Z,9.17
2017-11-14T10:55:44.686Z,9.13
2017-11-14T10:56:45.035Z,9.13
2017-11-14T10:57:44.761Z,9.29
2017-11-14T10:58:44.645Z,9.18
2017-11-14T10:59:44.866Z,9.26
2017-11-14T11:00:44.691Z,9.35
2017-11-14T11:01:44.665Z,9.38
2017-11-14T11:02:44.641Z,9.4
2017-11-14T11:03:44.785Z,9.39
2017-11-14T11:04:44.606Z,9.47
2017-11-14T11:05:44.644Z,9.54
2017-11-14T11:06:44.577Z,9.58
2017-11-14T11:07:44.573Z,9.61
2017-11-14T11:08:44.589Z,9.65
2017-11-14T11:09:44.577Z,9.58
2017-11-14T11:10:44.582Z,9.6
2017-11-14T11:11:44.589Z,9.58
2017-11-14T11:12:44.586Z,9.56
2017-11-14T11:13:44.576Z,9.58
2017-11-14T11:14:44.550Z,9.57
2017-11-14T11:15:44.176Z,9.56
2017-11-14T11:16:44.538Z,9.65
2017-11-14T11:17:44.582Z,9.68
2017-11-14T11:18:44.503Z,9.6
2017-11-14T11:19:44.189Z,9.68
2017-11-14T11:20:44.111Z,9.68
2017-11-14T11:21:44.494Z,9.6
2017-11-14T11:22:44.447Z,9.64
2017-11-14T11:23:44.457Z,9.72
2017-11-14T11:24:44.414Z,9.72
2017-11-14T11:25:44.408Z,9.69
2017-11-14T11:26:44.365Z,9.71
2017-11-14T11:27:44.350Z,9.75
2017-11-14T11:28:44.433Z,9.68
2017-11-14T11:29:44.382Z,9.79
2017-11-14T11:30:44.018Z,9.81
2017-11-14T11:31:44.371Z,9.91
2017-11-14T11:32:44.335Z,9.84
2017-11-14T11:33:44.314Z,9.86
2017-11-14T11:34:44.332Z,9.93
2017-11-14T11:35:44.294Z,9.96
2017-11-14T11:36:44.329Z,9.96
2017-11-14T11:37:44.321Z,10.11
2017-11-14T11:38:44.262Z,10.07
2017-11-14T11:39:44.295Z,10.22
2017-11-14T11:40:44.248Z,10.15
2017-11-14T11:41:43.910Z,10.25
2017-11-14T11:42:44.290Z,10.26
2017-11-14T11:43:44.465Z,10.34
2017-11-14T11:44:44.238Z,10.42
2017-11-14T11:45:44.206Z,10.42
2017-11-14T11:46:44.171Z,10.47
2017-11-14T11:47:44.170Z,10.6
2017-11-14T11:48:44.293Z,10.47
2017-11-14T11:49:44.143Z,10.44
2017-11-14T11:50:44.147Z,10.3
2017-11-14T11:51:43.821Z,10.29
2017-11-14T11:52:44.140Z,10.32
2017-11-14T11:53:44.375Z,10.36
2017-11-14T11:54:44.132Z,10.38
2017-11-14T11:55:43.809Z,10.41
2017-11-14T11:56:43.838Z,10.3
2017-11-14T11:57:44.113Z,10.4
2017-11-14T11:58:44.072Z,10.44
2017-11-14T11:59:44.074Z,10.44
2017-11-14T12:00:44.037Z,10.51
2017-11-14T12:01:44.096Z,10.41
2017-11-14T12:02:44.051Z,10.42
2017-11-14T12:03:44.112Z,10.41
2017-11-14T12:04:44.031Z,10.36
2017-11-14T12:05:44.016Z,10.33
2017-11-14T12:06:44.015Z,10.33
2017-11-14T12:07:43.983Z,10.44
2017-11-14T12:08:43.990Z,10.4
2017-11-14T12:09:43.987Z,10.47
2017-11-14T12:10:44.053Z,10.38
2017-11-14T12:11:44.230Z,10.44
2017-11-14T12:12:43.983Z,10.41
2017-11-14T12:13:43.940Z,10.42
2017-11-14T12:14:43.923Z,10.42
2017-11-14T12:15:43.948Z,10.42
2017-11-14T12:16:43.923Z,10.42
2017-11-14T12:17:43.574Z,10.36
2017-11-14T12:18:43.886Z,10.33
2017-11-14T12:19:43.880Z,10.26
2017-11-14T12:20:43.917Z,10.32
2017-11-14T12:21:43.939Z,10.32
2017-11-14T12:22:44.161Z,10.29
2017-11-14T12:23:43.892Z,10.3
2017-11-14T12:24:43.850Z,10.23
2017-11-14T12:25:43.853Z,10.2
2017-11-14T12:26:43.515Z,10.2
2017-11-14T12:27:43.875Z,10.2
2017-11-14T12:28:43.847Z,10.23
2017-11-14T12:29:43.800Z,10.3
2017-11-14T12:30:43.784Z,10.27
2017-11-14T12:31:43.829Z,10.3
2017-11-14T12:32:43.801Z,10.33
2017-11-14T12:33:43.793Z,10.33
2017-11-14T12:34:43.780Z,10.33
2017-11-14T12:35:43.783Z,10.34
2017-11-14T12:36:43.728Z,10.36
2017-11-14T12:37:43.729Z,10.33
2017-11-14T12:38:43.712Z,10.27
2017-11-14T12:39:43.705Z,10.3
2017-11-14T12:40:43.687Z,10.33
2017-11-14T12:41:43.675Z,10.25
2017-11-14T12:42:43.681Z,10.23
2017-11-14T12:43:43.678Z,10.18
2017-11-14T12:44:43.650Z,10.18
2017-11-14T12:45:43.661Z,10.09
2017-11-14T12:46:43.310Z,10.09
2017-11-14T12:47:43.314Z,10.14
2017-11-14T12:48:43.974Z,10.07
2017-11-14T12:49:43.281Z,10.07
2017-11-14T12:50:43.611Z,10.05
2017-11-14T12:51:43.590Z,10.22
2017-11-14T12:52:43.592Z,10.15
2017-11-14T12:53:43.572Z,10.25
2017-11-14T12:54:43.240Z,10.22
2017-11-14T12:55:43.567Z,10.17
2017-11-14T12:56:43.568Z,10.23
2017-11-14T12:57:43.151Z,10.33
2017-11-14T12:58:43.440Z,10.33
2017-11-14T12:59:43.464Z,10.42
2017-11-14T13:00:43.404Z,10.61
2017-11-14T13:01:43.391Z,10.56
2017-11-14T13:02:43.399Z,10.48
2017-11-14T13:03:43.383Z,10.48
2017-11-14T13:04:43.389Z,10.6
2017-11-14T13:05:43.090Z,10.6
2017-11-14T13:06:43.388Z,10.6
2017-11-14T13:07:43.357Z,10.53
2017-11-14T13:08:43.814Z,10.63
2017-11-14T13:09:43.338Z,10.56
2017-11-14T13:10:43.112Z,10.55
2017-11-14T13:11:43.365Z,10.6
2017-11-14T13:12:43.281Z,10.59
2017-11-14T13:13:43.309Z,10.55
2017-11-14T13:14:43.299Z,10.6
2017-11-14T13:15:43.248Z,10.68
2017-11-14T13:16:43.243Z,10.66
2017-11-14T13:17:43.261Z,10.71
2017-11-14T13:18:43.226Z,10.64